createdAt,value
2022-11-16T00:00:29.278Z,100221.56
2022-11-16T00:02:31.847Z,100228.97
2022-11-16T00:04:34.494Z,100204.38
2022-11-16T00:06:37.066Z,100183.63
2022-11-16T00:08:43.404Z,100196.94
2022-11-16T00:10:46.005Z,100203.56
2022-11-16T00:12:48.540Z,100144.78
2022-11-16T00:14:51.838Z,100173.03
2022-11-16T00:16:55.072Z,100109.06
2022-11-16T00:19:00.932Z,100224.13
2022-11-16T00:21:05.624Z,100220.94
2022-11-16T00:23:14.073Z,100094.63
2022-11-16T00:25:16.690Z,100214.78
2022-11-16T00:27:19.293Z,100232.69
2022-11-16T00:29:25.252Z,100233.50
2022-11-16T00:31:27.954Z,100226.50
2022-11-16T00:33:30.869Z,100230.44
2022-11-16T00:35:39.749Z,100230.22
2022-11-16T00:37:42.360Z,100220.28
2022-11-16T00:39:45.007Z,100090.84
2022-11-16T00:41:52.003Z,100202.97
2022-11-16T00:43:54.822Z,100213.09
2022-11-16T00:45:57.455Z,100214.69
2022-11-16T00:48:00.767Z,100199.69
2022-11-16T00:50:05.778Z,100214.38
2022-11-16T00:52:08.347Z,100226.09
2022-11-16T00:54:10.907Z,100224.19
2022-11-16T00:56:14.514Z,100231.69
2022-11-16T00:58:19.464Z,100191.78
2022-11-16T01:00:27.028Z,100217.50
2022-11-16T01:02:29.672Z,100208.13
2022-11-16T01:04:32.301Z,100171.88
2022-11-16T01:06:35.295Z,100166.13
2022-11-16T01:08:40.007Z,100219.50
2022-11-16T01:10:42.611Z,100187.75
2022-11-16T01:12:47.934Z,100166.59
2022-11-16T01:14:50.602Z,100186.88
2022-11-16T01:16:59.209Z,100193.50
2022-11-16T01:19:02.992Z,100200.88
2022-11-16T01:21:08.838Z,100194.72
2022-11-16T01:23:12.498Z,100187.22
2022-11-16T01:25:16.208Z,100203.25
2022-11-16T01:27:18.812Z,100177.31
2022-11-16T01:29:21.967Z,100156.13
2022-11-16T01:31:29.841Z,100144.75
2022-11-16T01:33:33.481Z,100142.16
2022-11-16T01:35:36.094Z,100180.97
2022-11-16T01:37:39.434Z,100106.31
2022-11-16T01:39:42.092Z,100168.09
2022-11-16T01:41:45.762Z,100060.25
2022-11-16T01:44:07.213Z,100134.75
2022-11-16T01:46:15.312Z,100119.97
2022-11-16T01:48:23.615Z,100178.44
2022-11-16T01:50:26.468Z,100133.75
2022-11-16T01:52:34.179Z,100173.31
2022-11-16T01:54:41.492Z,100174.13
2022-11-16T01:56:47.225Z,100151.63
2022-11-16T01:58:59.577Z,100173.00
2022-11-16T02:01:02.456Z,100158.09
2022-11-16T02:03:20.326Z,100024.13
2022-11-16T02:06:21.703Z,100162.31
2022-11-16T02:09:00.423Z,100148.53
2022-11-16T02:11:46.063Z,100150.03
2022-11-16T02:14:07.473Z,100153.06
2022-11-16T02:16:51.830Z,100141.34
2022-11-16T02:19:29.905Z,100152.47
2022-11-16T02:21:37.119Z,100154.97
2022-11-16T02:23:57.245Z,100155.78
2022-11-16T02:26:13.776Z,100155.22
2022-11-16T02:28:36.869Z,100127.56
2022-11-16T02:30:46.548Z,100141.25
2022-11-16T02:33:04.177Z,100134.06
2022-11-16T02:35:13.514Z,100144.63
2022-11-16T02:37:20.467Z,100143.06
2022-11-16T02:39:27.296Z,100008.31
2022-11-16T02:41:35.762Z,100121.22
2022-11-16T02:43:43.820Z,100128.38
2022-11-16T02:45:50.949Z,100079.50
2022-11-16T02:47:59.821Z,100137.81
2022-11-16T02:50:08.233Z,100101.88
2022-11-16T02:52:12.349Z,100132.34
2022-11-16T02:54:19.043Z,100131.78
2022-11-16T02:56:27.139Z,100089.59
2022-11-16T02:58:30.128Z,100118.59
2022-11-16T03:01:19.465Z,100134.06
2022-11-16T03:03:42.795Z,100100.16
2022-11-16T03:05:54.357Z,100122.91
2022-11-16T03:08:10.392Z,100113.38
2022-11-16T03:10:36.912Z,100126.78
2022-11-16T03:12:41.814Z,100122.78
2022-11-16T03:14:46.951Z,100118.81
2022-11-16T03:16:59.993Z,100124.50
2022-11-16T03:19:13.590Z,100118.25
2022-11-16T03:21:30.737Z,100074.81
2022-11-16T03:23:33.882Z,100099.25
2022-11-16T03:25:52.075Z,100106.66
2022-11-16T03:28:02.819Z,100100.88
2022-11-16T03:30:23.356Z,100089.84
2022-11-16T03:33:00.880Z,100094.63
2022-11-16T03:35:13.646Z,100059.03
2022-11-16T03:37:38.036Z,100051.41
2022-11-16T03:39:42.177Z,100081.88
2022-11-16T03:41:47.547Z,100070.28
2022-11-16T03:43:52.303Z,100081.66
2022-11-16T03:45:55.122Z,100076.06
2022-11-16T03:47:57.763Z,100064.81
2022-11-16T03:50:07.466Z,100053.47
2022-11-16T03:52:10.218Z,100052.09
2022-11-16T03:54:12.753Z,100088.69
2022-11-16T03:56:16.204Z,99992.41
2022-11-16T03:58:19.118Z,100071.41
2022-11-16T04:00:22.308Z,100075.63
2022-11-16T04:02:28.291Z,100060.03
2022-11-16T04:04:51.992Z,100016.16
2022-11-16T04:07:13.567Z,100056.63
2022-11-16T04:09:36.579Z,100044.94
2022-11-16T04:11:59.352Z,100060.84
2022-11-16T04:14:20.563Z,100032.66
2022-11-16T04:16:42.049Z,100044.25
2022-11-16T04:19:03.600Z,100085.28
2022-11-16T04:21:51.354Z,100016.16
2022-11-16T04:24:13.047Z,100082.91
2022-11-16T04:26:15.956Z,99951.66
2022-11-16T04:28:24.561Z,100068.59
2022-11-16T04:30:50.957Z,100089.03
2022-11-16T04:33:12.799Z,100075.84
2022-11-16T04:35:47.522Z,100055.63
2022-11-16T04:37:52.489Z,100069.38
2022-11-16T04:40:06.490Z,100051.28
2022-11-16T04:42:19.764Z,100058.34
2022-11-16T04:44:45.285Z,100023.34
2022-11-16T04:47:06.482Z,100074.72
2022-11-16T04:49:10.287Z,100056.88
2022-11-16T04:51:14.400Z,100028.44
2022-11-16T04:53:17.279Z,99945.84
2022-11-16T04:55:23.714Z,100073.13
2022-11-16T04:57:27.052Z,99989.94
2022-11-16T04:59:30.430Z,100027.88
2022-11-16T05:01:52.042Z,100043.22
2022-11-16T05:03:54.731Z,100082.00
2022-11-16T05:05:57.458Z,100051.53
2022-11-16T05:08:00.889Z,99986.72
2022-11-16T05:10:07.425Z,100079.03
2022-11-16T05:12:12.064Z,100052.56
2022-11-16T05:14:14.823Z,100062.91
2022-11-16T05:16:18.938Z,100061.53
2022-11-16T05:18:21.857Z,100053.78
2022-11-16T05:20:43.140Z,100079.03
2022-11-16T05:22:52.580Z,100053.25
2022-11-16T05:24:55.420Z,100060.94
2022-11-16T05:26:59.391Z,100081.19
2022-11-16T05:29:02.103Z,100090.59
2022-11-16T05:31:04.745Z,100094.28
2022-11-16T05:33:08.021Z,100068.44
2022-11-16T05:35:14.645Z,100059.38
2022-11-16T05:38:40.145Z,100103.47
2022-11-16T05:40:43.573Z,100072.00
2022-11-16T05:42:46.508Z,100095.28
2022-11-16T05:44:49.290Z,100067.78
2022-11-16T05:46:53.361Z,100093.34
2022-11-16T05:48:56.211Z,100073.91
2022-11-16T05:51:00.697Z,100093.81
2022-11-16T05:53:13.156Z,100083.81
2022-11-16T05:55:17.148Z,100052.66
2022-11-16T05:57:20.005Z,100089.06
2022-11-16T05:59:23.801Z,100097.00
2022-11-16T06:01:29.957Z,99978.91
2022-11-16T06:03:33.452Z,100099.16
2022-11-16T06:05:40.275Z,100112.03
2022-11-16T06:07:44.536Z,100082.91
2022-11-16T06:09:47.279Z,100012.09
2022-11-16T06:11:54.965Z,100078.94
2022-11-16T06:13:57.871Z,100000.28
2022-11-16T06:16:01.736Z,100090.41
2022-11-16T06:18:07.029Z,100119.63
2022-11-16T06:20:10.301Z,100100.53
2022-11-16T06:22:13.518Z,100082.22
2022-11-16T06:24:16.279Z,100098.81
2022-11-16T06:26:19.412Z,100114.06
2022-11-16T06:28:23.914Z,100086.06
2022-11-16T06:30:26.684Z,100089.28
2022-11-16T06:32:30.807Z,99967.88
2022-11-16T06:34:33.422Z,100009.94
2022-11-16T06:36:36.814Z,100058.56
2022-11-16T06:38:39.745Z,100015.25
2022-11-16T06:40:43.541Z,99995.81
2022-11-16T06:42:46.221Z,100061.41
2022-11-16T06:44:50.070Z,100099.41
2022-11-16T06:46:55.936Z,100017.22
2022-11-16T06:48:59.377Z,100062.19
2022-11-16T06:51:02.200Z,100126.03
2022-11-16T06:53:05.179Z,100079.69
2022-11-16T06:55:09.732Z,100066.31
2022-11-16T06:57:13.491Z,100097.22
2022-11-16T06:59:16.036Z,100096.09
2022-11-16T07:01:19.470Z,99999.13
2022-11-16T07:03:24.723Z,100124.88
2022-11-16T07:05:27.851Z,100102.69
2022-11-16T07:07:30.811Z,100060.84
2022-11-16T07:09:33.714Z,100115.91
2022-11-16T07:11:37.520Z,100124.06
2022-11-16T07:13:40.162Z,100124.41
2022-11-16T07:16:10.317Z,100112.03
2022-11-16T07:18:16.881Z,100117.47
2022-11-16T07:20:20.994Z,100023.00
2022-11-16T07:22:23.664Z,100092.13
2022-11-16T07:24:27.374Z,100122.13
2022-11-16T07:26:32.174Z,100012.00
2022-11-16T07:28:47.776Z,100120.53
2022-11-16T07:30:53.220Z,100110.06
2022-11-16T07:33:03.269Z,100119.41
2022-11-16T07:35:24.330Z,100123.38
2022-11-16T07:37:27.048Z,100107.34
2022-11-16T07:39:29.845Z,100009.13
2022-11-16T07:41:33.508Z,100091.44
2022-11-16T07:43:52.590Z,100122.00
2022-11-16T07:48:35.112Z,100116.31
2022-11-16T07:51:15.107Z,100105.97
2022-11-16T07:53:24.456Z,100095.16
2022-11-16T07:55:31.865Z,100087.56
2022-11-16T07:57:35.063Z,100106.78
2022-11-16T07:59:41.544Z,99988.78
2022-11-16T08:01:47.017Z,100091.19
2022-11-16T08:03:54.129Z,100098.38
2022-11-16T08:06:11.287Z,100091.53
2022-11-16T08:08:14.225Z,100085.16
2022-11-16T08:10:18.071Z,100102.34
2022-11-16T08:12:21.771Z,100004.13
2022-11-16T08:14:24.408Z,100065.97
2022-11-16T08:16:33.368Z,100109.03
2022-11-16T08:18:44.663Z,99954.03
2022-11-16T08:20:48.686Z,100035.13
2022-11-16T08:22:52.263Z,100063.69
2022-11-16T08:24:55.266Z,100046.63
2022-11-16T08:27:00.020Z,100076.41
2022-11-16T08:29:02.993Z,100092.00
2022-11-16T08:31:15.338Z,99967.31
2022-11-16T08:33:21.428Z,100081.97
2022-11-16T08:35:24.101Z,100085.50
2022-11-16T08:37:28.232Z,100057.28
2022-11-16T08:39:31.058Z,99987.75
2022-11-16T08:41:37.791Z,100072.75
2022-11-16T08:43:44.641Z,100035.13
2022-11-16T08:45:48.650Z,100067.41
2022-11-16T08:48:03.185Z,100060.69
2022-11-16T08:50:07.269Z,100039.88
2022-11-16T08:52:09.782Z,100006.25
2022-11-16T08:54:12.565Z,100048.19
2022-11-16T08:56:18.848Z,100068.38
2022-11-16T08:58:22.138Z,100028.81
2022-11-16T09:00:26.552Z,100051.31
2022-11-16T09:02:29.090Z,99929.56
2022-11-16T09:04:36.705Z,100015.72
2022-11-16T09:06:39.807Z,100059.38
2022-11-16T09:08:44.489Z,100059.13
2022-11-16T09:10:47.082Z,100020.63
2022-11-16T09:12:50.588Z,100062.97
2022-11-16T09:14:54.514Z,100043.97
2022-11-16T09:16:57.150Z,100036.13
2022-11-16T09:18:59.735Z,100032.47
2022-11-16T09:21:06.390Z,100037.59
2022-11-16T09:23:09.064Z,100016.44
2022-11-16T09:25:12.165Z,100044.84
2022-11-16T09:28:36.041Z,100051.38
2022-11-16T09:30:39.611Z,100065.13
2022-11-16T09:32:44.144Z,100059.41
2022-11-16T09:34:46.704Z,100038.81
2022-11-16T09:36:49.525Z,100040.63
2022-11-16T09:39:25.841Z,100032.47
2022-11-16T09:41:17.842Z,100057.44
2022-11-16T09:43:58.927Z,99989.84
2022-11-16T09:46:26.861Z,100034.56
2022-11-16T09:48:37.558Z,100026.72
2022-11-16T09:50:49.676Z,100058.31
2022-11-16T09:52:58.149Z,99996.81
2022-11-16T09:55:16.331Z,100024.38
2022-11-16T09:57:32.815Z,100051.63
2022-11-16T09:59:46.100Z,100048.47
2022-11-16T10:01:57.088Z,99961.53
2022-11-16T10:04:09.222Z,100052.56
2022-11-16T10:06:22.830Z,100031.91
2022-11-16T10:08:41.112Z,100016.56
2022-11-16T10:11:15.470Z,100056.88
2022-11-16T10:13:58.840Z,99994.03
2022-11-16T10:16:12.878Z,100047.06
2022-11-16T10:19:14.078Z,100039.91
2022-11-16T10:21:48.904Z,99994.94
2022-11-16T10:24:25.307Z,100028.97
2022-11-16T10:27:19.237Z,100023.72
2022-11-16T10:29:51.387Z,100011.00
2022-11-16T10:32:49.609Z,100030.84
2022-11-16T10:34:54.511Z,100031.47
2022-11-16T10:37:07.137Z,100015.78
2022-11-16T10:40:23.251Z,100027.19
2022-11-16T10:42:39.242Z,100006.53
2022-11-16T10:44:49.097Z,100025.22
2022-11-16T10:47:16.940Z,100021.00
2022-11-16T10:49:34.778Z,100017.81
2022-11-16T10:51:38.590Z,100010.91
2022-11-16T10:53:46.643Z,100011.28
2022-11-16T10:56:20.285Z,100028.56
2022-11-16T10:58:22.836Z,100017.41
2022-11-16T11:00:51.742Z,99935.13
2022-11-16T11:02:54.777Z,100013.00
2022-11-16T11:05:16.944Z,100015.53
2022-11-16T11:07:31.045Z,100012.91
2022-11-16T11:09:41.751Z,99996.69
2022-11-16T11:12:21.029Z,100012.59
2022-11-16T11:14:23.700Z,100005.03
2022-11-16T11:17:18.704Z,100018.78
2022-11-16T11:19:29.275Z,100025.63
2022-11-16T11:21:31.920Z,99890.13
2022-11-16T11:24:29.436Z,100012.41
2022-11-16T11:26:38.765Z,100005.91
2022-11-16T11:28:48.021Z,99994.47
2022-11-16T11:31:10.260Z,100007.00
2022-11-16T11:33:21.851Z,100004.88
2022-11-16T11:35:32.886Z,99989.31
2022-11-16T11:37:39.047Z,99958.09
2022-11-16T11:39:41.775Z,99894.03
2022-11-16T11:41:47.091Z,99990.97
2022-11-16T11:44:03.679Z,100008.38
2022-11-16T11:46:35.864Z,99993.03
2022-11-16T11:49:30.441Z,100001.56
2022-11-16T11:51:42.402Z,99992.09
2022-11-16T11:53:56.013Z,99998.13
2022-11-16T11:56:00.032Z,100002.50
2022-11-16T11:58:04.718Z,100015.59
2022-11-16T12:00:36.723Z,99799.63
2022-11-16T12:02:58.161Z,99854.16
2022-11-16T12:05:43.984Z,99998.38
2022-11-16T12:08:14.823Z,99973.81
2022-11-16T12:11:05.321Z,99995.41
2022-11-16T12:13:42.929Z,100009.06
2022-11-16T12:16:12.320Z,99957.56
2022-11-16T12:19:15.009Z,99986.97
2022-11-16T12:21:39.918Z,99984.97
2022-11-16T12:24:33.786Z,99960.13
2022-11-16T12:27:29.581Z,100012.69
2022-11-16T12:34:04.277Z,100006.84
2022-11-16T12:36:31.507Z,100001.88
2022-11-16T12:38:42.172Z,100007.56
2022-11-16T12:41:17.151Z,100012.00
2022-11-16T12:43:50.076Z,100014.03
2022-11-16T12:46:08.745Z,99988.63
2022-11-16T12:48:29.019Z,100015.09
2022-11-16T12:50:44.164Z,99987.09
2022-11-16T12:53:23.901Z,99991.25
2022-11-16T12:56:09.244Z,99970.25
2022-11-16T12:58:41.852Z,99982.25
2022-11-16T13:01:13.756Z,100015.41
2022-11-16T13:03:26.752Z,100009.31
2022-11-16T13:05:42.420Z,100014.19
2022-11-16T13:07:53.643Z,99907.03
2022-11-16T13:10:20.027Z,100021.97
2022-11-16T13:12:25.388Z,100014.13
2022-11-16T13:14:56.315Z,100016.41
2022-11-16T13:17:02.149Z,100003.88
2022-11-16T13:19:07.496Z,99991.75
2022-11-16T13:22:03.298Z,100020.97
2022-11-16T13:24:59.066Z,99993.09
2022-11-16T13:27:48.403Z,99942.94
2022-11-16T13:30:15.404Z,100000.88
2022-11-16T13:32:53.957Z,99973.72
2022-11-16T13:34:59.286Z,100010.91
2022-11-16T13:37:01.903Z,99923.31
2022-11-16T13:39:59.000Z,100007.56
2022-11-16T13:42:14.158Z,99969.19
2022-11-16T13:44:22.114Z,99997.81
2022-11-16T13:46:55.212Z,99992.50
2022-11-16T13:48:59.006Z,99867.78
2022-11-16T13:51:05.062Z,99991.69
2022-11-16T13:55:48.255Z,99980.66
2022-11-16T13:57:54.214Z,99983.72
2022-11-16T14:00:11.738Z,99991.25
2022-11-16T14:02:36.215Z,99967.16
2022-11-16T14:04:55.505Z,99976.22
2022-11-16T14:06:59.731Z,99988.16
2022-11-16T14:09:02.525Z,99978.03
2022-11-16T14:11:28.789Z,99985.28
2022-11-16T14:13:44.317Z,99975.41
2022-11-16T14:16:21.932Z,99987.09
2022-11-16T14:18:36.968Z,99987.09
2022-11-16T14:20:56.756Z,99984.28
2022-11-16T14:23:36.276Z,99980.31
2022-11-16T14:25:57.985Z,99967.56
2022-11-16T14:28:28.151Z,99984.28
2022-11-16T14:31:17.873Z,99984.63
2022-11-16T14:33:36.850Z,99983.00
2022-11-16T14:35:40.641Z,99944.19
2022-11-16T14:37:43.275Z,99864.94
2022-11-16T14:39:45.971Z,99866.84
2022-11-16T14:41:48.620Z,99959.16
2022-11-16T14:43:55.493Z,99963.28
2022-11-16T14:46:04.532Z,99962.59
2022-11-16T14:48:17.760Z,99972.59
2022-11-16T14:50:23.911Z,99961.44
2022-11-16T14:52:38.867Z,99952.94
2022-11-16T14:55:07.410Z,99934.16
2022-11-16T14:57:24.190Z,99972.34
2022-11-16T14:59:28.124Z,99968.16
2022-11-16T15:01:39.514Z,99968.63
2022-11-16T15:03:52.715Z,99971.78
2022-11-16T15:06:01.178Z,99896.06
2022-11-16T15:08:17.648Z,99957.09
2022-11-16T15:10:24.865Z,99969.19
2022-11-16T15:12:42.006Z,99960.78
2022-11-16T15:14:52.853Z,99962.34
2022-11-16T15:17:09.088Z,99942.13
2022-11-16T15:19:12.927Z,99949.63
2022-11-16T15:21:23.365Z,99967.56
2022-11-16T15:23:30.501Z,99942.81
2022-11-16T15:25:43.906Z,99808.31
2022-11-16T15:27:46.515Z,99932.47
2022-11-16T15:29:49.339Z,99931.66
2022-11-16T15:31:52.021Z,99823.19
2022-11-16T15:33:54.676Z,99952.59
2022-11-16T15:35:57.740Z,99956.34
2022-11-16T15:38:15.632Z,99958.72
2022-11-16T15:40:18.228Z,99899.31
2022-11-16T15:42:22.791Z,99915.22
2022-11-16T15:44:26.715Z,99935.97
2022-11-16T15:46:34.305Z,99956.66
2022-11-16T15:48:38.675Z,99920.88
2022-11-16T15:51:12.120Z,99945.53
2022-11-16T15:53:40.338Z,99961.25
2022-11-16T15:55:49.749Z,99932.59
2022-11-16T15:58:27.160Z,99963.28
2022-11-16T16:00:32.151Z,99965.13
2022-11-16T16:02:35.297Z,99927.28
2022-11-16T16:04:43.470Z,99858.94
2022-11-16T16:06:52.686Z,99939.41
2022-11-16T16:09:06.161Z,99934.97
2022-11-16T16:11:11.198Z,99959.16
2022-11-16T16:13:27.234Z,99960.44
2022-11-16T16:15:36.683Z,99953.38
2022-11-16T16:17:46.456Z,99963.59
2022-11-16T16:19:58.197Z,99903.44
2022-11-16T16:22:01.498Z,99958.94
2022-11-16T16:24:04.208Z,99925.13
2022-11-16T16:26:08.429Z,99917.50
2022-11-16T16:28:12.627Z,99953.69
2022-11-16T16:30:16.112Z,99888.34
2022-11-16T16:32:28.407Z,99971.00
2022-11-16T16:34:31.024Z,99953.84
2022-11-16T16:36:33.598Z,99953.38
2022-11-16T16:39:26.970Z,99962.34
2022-11-16T16:41:29.526Z,99930.53
2022-11-16T16:43:33.053Z,99870.06
2022-11-16T16:45:42.205Z,99927.28
2022-11-16T16:49:09.162Z,99977.47
2022-11-16T16:51:12.984Z,99945.22
2022-11-16T16:53:15.816Z,99964.75
2022-11-16T16:55:18.425Z,99981.56
2022-11-16T16:57:21.001Z,99977.16
2022-11-16T16:59:24.559Z,99849.66
2022-11-16T17:01:27.171Z,99955.09
2022-11-16T17:03:31.254Z,99866.56
2022-11-16T17:05:36.474Z,99950.19
2022-11-16T17:07:39.448Z,99926.69
2022-11-16T17:09:42.487Z,99829.22
2022-11-16T17:11:46.717Z,99937.81
2022-11-16T17:13:49.483Z,99851.22
2022-11-16T17:15:52.110Z,99869.03
2022-11-16T17:17:54.663Z,99937.03
2022-11-16T17:19:57.193Z,99959.53
2022-11-16T17:22:00.114Z,99958.75
2022-11-16T17:24:02.685Z,99962.81
2022-11-16T17:26:09.775Z,99958.28
2022-11-16T17:28:12.375Z,99955.09
2022-11-16T17:30:15.965Z,99951.38
2022-11-16T17:32:18.534Z,99961.00
2022-11-16T17:34:21.182Z,99957.03
2022-11-16T17:36:23.730Z,99920.03
2022-11-16T17:38:26.347Z,99972.38
2022-11-16T17:40:28.916Z,99926.50
2022-11-16T17:43:23.002Z,99972.47
2022-11-16T17:45:27.535Z,99961.38
2022-11-16T17:47:33.924Z,99963.50
2022-11-16T17:49:36.495Z,99949.22
2022-11-16T17:51:39.061Z,99972.72
2022-11-16T17:54:11.312Z,99969.31
2022-11-16T17:56:17.084Z,99958.66
2022-11-16T17:58:32.502Z,99955.44
2022-11-16T18:00:35.262Z,99967.16
2022-11-16T18:02:37.970Z,99973.19
2022-11-16T18:04:40.532Z,99891.66
2022-11-16T18:06:43.109Z,99977.59
2022-11-16T18:08:46.060Z,99974.78
2022-11-16T18:10:48.707Z,99844.56
2022-11-16T18:12:52.686Z,99975.41
2022-11-16T18:15:28.087Z,99955.66
2022-11-16T18:17:31.884Z,99963.16
2022-11-16T18:19:34.442Z,99951.25
2022-11-16T18:21:40.623Z,99952.00
2022-11-16T18:23:45.279Z,99968.16
2022-11-16T18:25:47.874Z,99954.53
2022-11-16T18:27:55.512Z,99965.53
2022-11-16T18:29:58.142Z,99959.84
2022-11-16T18:32:04.662Z,99851.47
2022-11-16T18:34:07.297Z,99934.78
2022-11-16T18:36:10.602Z,99941.91
2022-11-16T18:38:13.204Z,99920.47
2022-11-16T18:40:15.854Z,99943.28
2022-11-16T18:42:18.437Z,99863.06
2022-11-16T18:44:20.965Z,99921.63
2022-11-16T18:46:29.598Z,99952.38
2022-11-16T18:48:32.380Z,99956.59
2022-11-16T18:50:35.014Z,99957.59
2022-11-16T18:52:45.882Z,99894.06
2022-11-16T18:54:48.489Z,99932.19
2022-11-16T18:56:55.567Z,99962.47
2022-11-16T18:58:58.166Z,99922.75
2022-11-16T19:01:06.658Z,99937.59
2022-11-16T19:03:11.395Z,99970.78
2022-11-16T19:05:14.167Z,99942.84
2022-11-16T19:07:17.078Z,99845.34
2022-11-16T19:09:19.808Z,99850.34
2022-11-16T19:11:23.900Z,99957.16
2022-11-16T19:13:26.474Z,99951.28
2022-11-16T19:15:30.218Z,99937.72
2022-11-16T19:18:06.388Z,99938.53
2022-11-16T19:20:04.853Z,99950.69
2022-11-16T19:22:07.430Z,99939.34
2022-11-16T19:24:10.183Z,99961.47
2022-11-16T19:26:15.177Z,99959.13
2022-11-16T19:28:23.726Z,99947.28
2022-11-16T19:30:31.741Z,99955.91
2022-11-16T19:32:43.355Z,99923.13
2022-11-16T19:34:45.945Z,99927.53
2022-11-16T19:36:49.509Z,99941.06
2022-11-16T19:38:53.694Z,99965.78
2022-11-16T19:40:56.327Z,99889.84
2022-11-16T19:42:58.873Z,99964.34
2022-11-16T19:45:01.441Z,99966.38
2022-11-16T19:47:05.466Z,99948.66
2022-11-16T19:49:10.211Z,99907.78
2022-11-16T19:51:26.234Z,99985.91
2022-11-16T19:53:28.803Z,99979.78
2022-11-16T19:55:31.380Z,99976.28
2022-11-16T19:57:34.046Z,99981.50
2022-11-16T19:59:36.600Z,99959.91
2022-11-16T20:01:39.133Z,99952.53
2022-11-16T20:03:42.362Z,99958.78
2022-11-16T20:05:44.911Z,99958.91
2022-11-16T20:07:49.243Z,99954.34
2022-11-16T20:09:53.553Z,99989.25
2022-11-16T20:11:56.874Z,99977.06
2022-11-16T20:14:00.049Z,99931.66
2022-11-16T20:16:02.693Z,99989.00
2022-11-16T20:18:05.382Z,99942.13
2022-11-16T20:20:08.647Z,99970.94
2022-11-16T20:22:11.228Z,99877.84
2022-11-16T20:24:15.927Z,99976.41
2022-11-16T20:26:20.590Z,100002.88
2022-11-16T20:28:26.770Z,99970.63
2022-11-16T20:30:29.373Z,99966.88
2022-11-16T20:32:31.961Z,99992.31
2022-11-16T20:34:35.359Z,99973.78
2022-11-16T20:36:37.960Z,99934.47
2022-11-16T20:38:40.926Z,99963.78
2022-11-16T20:40:43.532Z,99992.88
2022-11-16T20:42:47.271Z,99954.50
2022-11-16T20:44:49.899Z,99968.91
2022-11-16T20:46:52.909Z,99948.94
2022-11-16T20:48:57.381Z,99980.81
2022-11-16T20:51:00.023Z,99980.81
2022-11-16T20:53:02.574Z,99982.31
2022-11-16T20:55:05.947Z,99993.78
2022-11-16T20:57:11.578Z,99973.09
2022-11-16T20:59:14.177Z,99954.94
2022-11-16T21:01:31.970Z,99900.78
2022-11-16T21:03:44.650Z,99980.84
2022-11-16T21:05:52.221Z,100009.59
2022-11-16T21:07:54.827Z,99994.00
2022-11-16T21:10:15.889Z,100008.13
2022-11-16T21:12:43.829Z,99966.88
2022-11-16T21:14:46.705Z,99935.19
2022-11-16T21:16:49.526Z,99969.03
2022-11-16T21:18:54.693Z,99914.66
2022-11-16T21:21:02.407Z,99995.63
2022-11-16T21:23:53.706Z,99987.78
2022-11-16T21:26:53.439Z,99992.00
2022-11-16T21:29:30.517Z,99949.59
2022-11-16T21:31:37.276Z,99990.84
2022-11-16T21:33:55.587Z,99985.50
2022-11-16T21:36:49.209Z,99984.00
2022-11-16T21:39:00.084Z,99974.25
2022-11-16T21:41:06.313Z,99941.66
2022-11-16T21:43:10.936Z,99961.50
2022-11-16T21:45:13.503Z,99960.41
2022-11-16T21:48:08.466Z,99985.38
2022-11-16T21:50:31.042Z,99994.25
2022-11-16T21:52:34.470Z,99991.66
2022-11-16T21:54:48.618Z,99969.94
2022-11-16T21:57:20.452Z,99981.31
2022-11-16T21:59:22.995Z,99988.34
2022-11-16T22:01:45.663Z,99963.56
2022-11-16T22:04:32.780Z,99985.97
2022-11-16T22:06:54.323Z,99942.31
2022-11-16T22:08:56.918Z,99975.72
2022-11-16T22:10:59.559Z,99973.47
2022-11-16T22:13:16.219Z,99960.28
2022-11-16T22:15:18.890Z,99885.53
2022-11-16T22:17:22.311Z,99866.81
2022-11-16T22:19:25.046Z,99979.25
2022-11-16T22:21:27.739Z,99863.28
2022-11-16T22:23:30.449Z,99847.97
2022-11-16T22:25:34.033Z,99954.38
2022-11-16T22:27:52.344Z,99940.41
2022-11-16T22:30:00.418Z,99969.84
2022-11-16T22:32:04.475Z,99947.53
2022-11-16T22:34:07.114Z,99868.97
2022-11-16T22:36:10.628Z,99958.03
2022-11-16T22:38:13.194Z,99863.44
2022-11-16T22:40:17.917Z,99957.22
2022-11-16T22:42:20.648Z,99965.50
2022-11-16T22:44:23.232Z,99954.59
2022-11-16T22:46:25.839Z,99938.13
2022-11-16T22:48:39.689Z,99957.88
2022-11-16T22:51:21.244Z,99967.41
2022-11-16T22:53:23.849Z,99960.03
2022-11-16T22:55:26.395Z,99953.91
2022-11-16T22:57:29.005Z,99981.38
2022-11-16T22:59:31.921Z,99932.47
2022-11-16T23:01:34.554Z,99961.53
2022-11-16T23:03:38.357Z,99910.63
2022-11-16T23:05:41.404Z,99963.69
2022-11-16T23:07:44.072Z,99928.50
2022-11-16T23:10:18.217Z,99938.69
2022-11-16T23:12:39.352Z,99935.19
2022-11-16T23:15:00.316Z,99952.09
2022-11-16T23:17:03.960Z,99951.88
2022-11-16T23:19:30.517Z,99956.31
2022-11-16T23:21:52.107Z,99923.47
2022-11-16T23:24:14.987Z,99913.72
2022-11-16T23:26:42.444Z,99938.34
2022-11-16T23:28:45.056Z,99922.56
2022-11-16T23:30:47.617Z,99922.69
2022-11-16T23:32:50.387Z,99820.06
2022-11-16T23:34:52.953Z,99935.41
2022-11-16T23:37:01.996Z,99811.00
2022-11-16T23:39:08.449Z,99911.88
2022-11-16T23:41:29.855Z,99929.59
2022-11-16T23:43:50.892Z,99827.09
2022-11-16T23:45:53.450Z,99879.53
2022-11-16T23:47:56.012Z,99832.44
2022-11-16T23:49:58.721Z,99930.16
2022-11-16T23:52:10.922Z,99890.53
2022-11-16T23:54:13.506Z,99903.84
2022-11-16T23:56:16.092Z,99807.78
2022-11-16T23:58:18.625Z,99871.47
